sensor_id;sensor_type;location;lat;lon;timestamp;temperature;humidity
4306;DHT22;2166;49.926;8.608;2022-07-29T00:01:18;21.40;56.30
4306;DHT22;2166;49.926;8.608;2022-07-29T00:03:46;21.30;56.60
4306;DHT22;2166;49.926;8.608;2022-07-29T00:06:15;21.20;57.00
4306;DHT22;2166;49.926;8.608;2022-07-29T00:08:43;21.10;57.50
4306;DHT22;2166;49.926;8.608;2022-07-29T00:11:13;21.10;57.40
4306;DHT22;2166;49.926;8.608;2022-07-29T00:13:41;21.00;57.30
4306;DHT22;2166;49.926;8.608;2022-07-29T00:16:16;21.00;57.60
4306;DHT22;2166;49.926;8.608;2022-07-29T00:18:44;21.00;57.70
4306;DHT22;2166;49.926;8.608;2022-07-29T00:21:13;21.00;57.60
4306;DHT22;2166;49.926;8.608;2022-07-29T00:23:41;21.00;57.70
4306;DHT22;2166;49.926;8.608;2022-07-29T00:26:09;21.00;57.70
4306;DHT22;2166;49.926;8.608;2022-07-29T00:28:38;21.00;57.50
4306;DHT22;2166;49.926;8.608;2022-07-29T00:31:06;20.90;57.70
4306;DHT22;2166;49.926;8.608;2022-07-29T00:33:35;21.00;57.50
4306;DHT22;2166;49.926;8.608;2022-07-29T00:36:04;21.00;57.50
4306;DHT22;2166;49.926;8.608;2022-07-29T00:38:31;21.00;57.40
4306;DHT22;2166;49.926;8.608;2022-07-29T00:40:59;21.00;57.40
4306;DHT22;2166;49.926;8.608;2022-07-29T00:43:28;20.90;57.40
4306;DHT22;2166;49.926;8.608;2022-07-29T00:45:57;20.90;57.40
4306;DHT22;2166;49.926;8.608;2022-07-29T00:48:25;20.90;57.50
4306;DHT22;2166;49.926;8.608;2022-07-29T00:50:54;20.90;57.40
4306;DHT22;2166;49.926;8.608;2022-07-29T00:53:24;20.90;57.20
4306;DHT22;2166;49.926;8.608;2022-07-29T00:55:54;21.00;56.90
4306;DHT22;2166;49.926;8.608;2022-07-29T00:58:22;21.00;56.70
4306;DHT22;2166;49.926;8.608;2022-07-29T01:00:52;21.10;56.50
4306;DHT22;2166;49.926;8.608;2022-07-29T01:03:21;21.10;56.60
4306;DHT22;2166;49.926;8.608;2022-07-29T01:05:50;21.10;56.40
4306;DHT22;2166;49.926;8.608;2022-07-29T01:08:18;21.10;56.60
4306;DHT22;2166;49.926;8.608;2022-07-29T01:10:48;21.00;56.70
4306;DHT22;2166;49.926;8.608;2022-07-29T01:13:17;21.00;56.70
4306;DHT22;2166;49.926;8.608;2022-07-29T01:15:49;20.90;56.60
4306;DHT22;2166;49.926;8.608;2022-07-29T01:18:26;20.90;56.80
4306;DHT22;2166;49.926;8.608;2022-07-29T01:21:14;20.80;56.70
4306;DHT22;2166;49.926;8.608;2022-07-29T01:23:57;20.70;56.90
4306;DHT22;2166;49.926;8.608;2022-07-29T01:26:42;20.70;56.90
4306;DHT22;2166;49.926;8.608;2022-07-29T01:29:17;20.60;57.00
4306;DHT22;2166;49.926;8.608;2022-07-29T01:31:51;20.50;57.10
4306;DHT22;2166;49.926;8.608;2022-07-29T01:34:34;20.50;57.20
4306;DHT22;2166;49.926;8.608;2022-07-29T01:37:08;20.40;57.10
4306;DHT22;2166;49.926;8.608;2022-07-29T01:39:40;20.40;57.20
4306;DHT22;2166;49.926;8.608;2022-07-29T01:42:14;20.30;57.30
4306;DHT22;2166;49.926;8.608;2022-07-29T01:44:53;20.30;57.40
4306;DHT22;2166;49.926;8.608;2022-07-29T01:47:25;20.20;57.40
4306;DHT22;2166;49.926;8.608;2022-07-29T01:49:56;20.20;57.50
4306;DHT22;2166;49.926;8.608;2022-07-29T01:52:30;20.10;57.60
4306;DHT22;2166;49.926;8.608;2022-07-29T01:55:01;20.10;57.70
4306;DHT22;2166;49.926;8.608;2022-07-29T01:57:32;20.00;57.80
4306;DHT22;2166;49.926;8.608;2022-07-29T02:00:04;20.00;57.70
4306;DHT22;2166;49.926;8.608;2022-07-29T02:02:41;20.00;57.60
4306;DHT22;2166;49.926;8.608;2022-07-29T02:05:12;20.00;57.70
4306;DHT22;2166;49.926;8.608;2022-07-29T02:07:42;20.00;57.60
4306;DHT22;2166;49.926;8.608;2022-07-29T02:10:12;20.00;57.60
4306;DHT22;2166;49.926;8.608;2022-07-29T02:12:42;20.00;57.60
4306;DHT22;2166;49.926;8.608;2022-07-29T02:15:19;20.00;57.60
4306;DHT22;2166;49.926;8.608;2022-07-29T02:17:51;20.00;57.60
4306;DHT22;2166;49.926;8.608;2022-07-29T02:20:22;20.00;57.50
4306;DHT22;2166;49.926;8.608;2022-07-29T02:22:51;20.00;57.60
4306;DHT22;2166;49.926;8.608;2022-07-29T02:25:21;20.00;57.80
4306;DHT22;2166;49.926;8.608;2022-07-29T02:27:50;20.00;57.90
4306;DHT22;2166;49.926;8.608;2022-07-29T02:30:22;20.00;57.90
4306;DHT22;2166;49.926;8.608;2022-07-29T02:32:51;20.00;58.00
4306;DHT22;2166;49.926;8.608;2022-07-29T02:35:21;20.00;58.00
4306;DHT22;2166;49.926;8.608;2022-07-29T02:37:50;20.00;58.20
4306;DHT22;2166;49.926;8.608;2022-07-29T02:40:33;20.00;58.40
4306;DHT22;2166;49.926;8.608;2022-07-29T02:43:03;19.90;58.50
4306;DHT22;2166;49.926;8.608;2022-07-29T02:45:33;19.90;58.70
4306;DHT22;2166;49.926;8.608;2022-07-29T02:48:06;19.90;58.90
4306;DHT22;2166;49.926;8.608;2022-07-29T02:50:39;19.80;59.20
4306;DHT22;2166;49.926;8.608;2022-07-29T02:53:14;19.80;59.40
4306;DHT22;2166;49.926;8.608;2022-07-29T02:55:46;19.70;59.60
4306;DHT22;2166;49.926;8.608;2022-07-29T02:58:23;19.70;59.80
4306;DHT22;2166;49.926;8.608;2022-07-29T03:00:57;19.70;60.10
4306;DHT22;2166;49.926;8.608;2022-07-29T03:03:29;19.60;60.30
4306;DHT22;2166;49.926;8.608;2022-07-29T03:06:00;19.60;60.40
4306;DHT22;2166;49.926;8.608;2022-07-29T03:08:29;19.60;60.70
4306;DHT22;2166;49.926;8.608;2022-07-29T03:10:58;19.50;60.80
4306;DHT22;2166;49.926;8.608;2022-07-29T03:13:27;19.50;61.10
4306;DHT22;2166;49.926;8.608;2022-07-29T03:15:59;19.40;61.20
4306;DHT22;2166;49.926;8.608;2022-07-29T03:18:27;19.40;61.60
4306;DHT22;2166;49.926;8.608;2022-07-29T03:20:56;19.30;61.90
4306;DHT22;2166;49.926;8.608;2022-07-29T03:23:24;19.30;62.00
4306;DHT22;2166;49.926;8.608;2022-07-29T03:26:00;19.20;62.30
4306;DHT22;2166;49.926;8.608;2022-07-29T03:28:29;19.10;62.70
4306;DHT22;2166;49.926;8.608;2022-07-29T03:30:59;19.10;63.00
4306;DHT22;2166;49.926;8.608;2022-07-29T03:33:27;19.00;63.30
4306;DHT22;2166;49.926;8.608;2022-07-29T03:35:57;18.90;63.80
4306;DHT22;2166;49.926;8.608;2022-07-29T03:38:27;18.90;64.20
4306;DHT22;2166;49.926;8.608;2022-07-29T03:41:00;18.90;64.00
4306;DHT22;2166;49.926;8.608;2022-07-29T03:43:31;18.80;64.40
4306;DHT22;2166;49.926;8.608;2022-07-29T03:46:02;18.80;64.50
4306;DHT22;2166;49.926;8.608;2022-07-29T03:48:36;18.70;64.60
4306;DHT22;2166;49.926;8.608;2022-07-29T03:51:06;18.70;64.90
4306;DHT22;2166;49.926;8.608;2022-07-29T03:53:35;18.60;65.40
4306;DHT22;2166;49.926;8.608;2022-07-29T03:56:05;18.60;65.50
4306;DHT22;2166;49.926;8.608;2022-07-29T03:58:34;18.60;65.50
4306;DHT22;2166;49.926;8.608;2022-07-29T04:01:04;18.60;65.50
4306;DHT22;2166;49.926;8.608;2022-07-29T04:03:33;18.50;65.50
4306;DHT22;2166;49.926;8.608;2022-07-29T04:06:03;18.50;65.50
4306;DHT22;2166;49.926;8.608;2022-07-29T04:08:34;18.50;65.60
4306;DHT22;2166;49.926;8.608;2022-07-29T04:11:03;18.40;65.50
4306;DHT22;2166;49.926;8.608;2022-07-29T04:13:32;18.40;65.30
4306;DHT22;2166;49.926;8.608;2022-07-29T04:16:00;18.40;65.20
4306;DHT22;2166;49.926;8.608;2022-07-29T04:18:30;18.40;65.20
4306;DHT22;2166;49.926;8.608;2022-07-29T04:20:58;18.40;65.20
4306;DHT22;2166;49.926;8.608;2022-07-29T04:23:27;18.40;65.20
4306;DHT22;2166;49.926;8.608;2022-07-29T04:25:59;18.40;65.10
4306;DHT22;2166;49.926;8.608;2022-07-29T04:28:28;18.40;65.20
4306;DHT22;2166;49.926;8.608;2022-07-29T04:30:56;18.40;65.40
4306;DHT22;2166;49.926;8.608;2022-07-29T04:33:24;18.40;65.60
4306;DHT22;2166;49.926;8.608;2022-07-29T04:35:54;18.40;65.60
4306;DHT22;2166;49.926;8.608;2022-07-29T04:38:22;18.40;65.30
4306;DHT22;2166;49.926;8.608;2022-07-29T04:40:50;18.50;65.40
4306;DHT22;2166;49.926;8.608;2022-07-29T04:43:20;18.50;65.20
4306;DHT22;2166;49.926;8.608;2022-07-29T04:45:49;18.60;65.20
4306;DHT22;2166;49.926;8.608;2022-07-29T04:48:18;19.00;64.60
4306;DHT22;2166;49.926;8.608;2022-07-29T04:50:55;19.60;63.20
4306;DHT22;2166;49.926;8.608;2022-07-29T04:53:24;20.40;61.30
4306;DHT22;2166;49.926;8.608;2022-07-29T04:55:52;21.10;59.40
4306;DHT22;2166;49.926;8.608;2022-07-29T04:58:21;21.70;57.60
4306;DHT22;2166;49.926;8.608;2022-07-29T05:00:50;22.20;56.30
4306;DHT22;2166;49.926;8.608;2022-07-29T05:03:18;22.70;55.20
4306;DHT22;2166;49.926;8.608;2022-07-29T05:05:46;23.30;53.90
4306;DHT22;2166;49.926;8.608;2022-07-29T05:08:16;23.70;52.70
4306;DHT22;2166;49.926;8.608;2022-07-29T05:10:44;24.10;51.60
4306;DHT22;2166;49.926;8.608;2022-07-29T05:13:12;24.30;51.40
4306;DHT22;2166;49.926;8.608;2022-07-29T05:15:40;24.60;50.70
4306;DHT22;2166;49.926;8.608;2022-07-29T05:18:08;24.90;50.00
4306;DHT22;2166;49.926;8.608;2022-07-29T05:20:37;25.10;49.60
4306;DHT22;2166;49.926;8.608;2022-07-29T05:23:05;25.30;49.10
4306;DHT22;2166;49.926;8.608;2022-07-29T05:25:34;25.50;48.40
4306;DHT22;2166;49.926;8.608;2022-07-29T05:28:10;25.80;47.80
4306;DHT22;2166;49.926;8.608;2022-07-29T05:30:38;25.70;47.90
4306;DHT22;2166;49.926;8.608;2022-07-29T05:33:07;26.00;47.40
4306;DHT22;2166;49.926;8.608;2022-07-29T05:35:55;26.30;46.60
4306;DHT22;2166;49.926;8.608;2022-07-29T05:38:26;26.50;46.60
4306;DHT22;2166;49.926;8.608;2022-07-29T05:40:57;26.80;45.70
4306;DHT22;2166;49.926;8.608;2022-07-29T05:43:26;27.00;45.40
4306;DHT22;2166;49.926;8.608;2022-07-29T05:45:55;27.50;44.90
4306;DHT22;2166;49.926;8.608;2022-07-29T05:48:23;27.60;44.80
4306;DHT22;2166;49.926;8.608;2022-07-29T05:50:52;28.10;44.20
4306;DHT22;2166;49.926;8.608;2022-07-29T05:53:20;28.40;43.40
4306;DHT22;2166;49.926;8.608;2022-07-29T05:55:48;28.60;42.80
4306;DHT22;2166;49.926;8.608;2022-07-29T05:58:18;28.80;42.90
4306;DHT22;2166;49.926;8.608;2022-07-29T06:00:47;29.20;42.40
4306;DHT22;2166;49.926;8.608;2022-07-29T06:03:15;29.60;41.50
4306;DHT22;2166;49.926;8.608;2022-07-29T06:05:43;30.00;40.90
4306;DHT22;2166;49.926;8.608;2022-07-29T06:08:12;30.00;40.40
4306;DHT22;2166;49.926;8.608;2022-07-29T06:10:40;29.60;41.20
4306;DHT22;2166;49.926;8.608;2022-07-29T06:13:14;29.50;41.20
4306;DHT22;2166;49.926;8.608;2022-07-29T06:15:44;29.90;40.40
4306;DHT22;2166;49.926;8.608;2022-07-29T06:18:12;29.50;40.80
4306;DHT22;2166;49.926;8.608;2022-07-29T06:20:41;29.30;41.40
4306;DHT22;2166;49.926;8.608;2022-07-29T06:23:09;28.70;41.70
4306;DHT22;2166;49.926;8.608;2022-07-29T06:25:39;28.30;42.30
4306;DHT22;2166;49.926;8.608;2022-07-29T06:28:07;28.20;42.70
4306;DHT22;2166;49.926;8.608;2022-07-29T06:30:35;28.60;42.00
4306;DHT22;2166;49.926;8.608;2022-07-29T06:33:05;28.50;41.80
4306;DHT22;2166;49.926;8.608;2022-07-29T06:35:34;28.60;41.70
4306;DHT22;2166;49.926;8.608;2022-07-29T06:38:08;28.50;41.80
4306;DHT22;2166;49.926;8.608;2022-07-29T06:40:58;28.70;41.60
4306;DHT22;2166;49.926;8.608;2022-07-29T06:43:33;28.40;41.80
4306;DHT22;2166;49.926;8.608;2022-07-29T06:46:18;28.50;41.70
4306;DHT22;2166;49.926;8.608;2022-07-29T06:48:49;28.50;41.50
4306;DHT22;2166;49.926;8.608;2022-07-29T06:51:19;28.60;41.70
4306;DHT22;2166;49.926;8.608;2022-07-29T06:53:50;29.40;41.10
4306;DHT22;2166;49.926;8.608;2022-07-29T06:56:29;30.50;39.90
4306;DHT22;2166;49.926;8.608;2022-07-29T06:58:57;31.70;38.20
4306;DHT22;2166;49.926;8.608;2022-07-29T07:01:27;32.70;36.90
4306;DHT22;2166;49.926;8.608;2022-07-29T07:03:57;33.00;36.10
4306;DHT22;2166;49.926;8.608;2022-07-29T07:06:25;33.60;35.70
4306;DHT22;2166;49.926;8.608;2022-07-29T07:08:53;34.50;34.90
4306;DHT22;2166;49.926;8.608;2022-07-29T07:11:21;35.10;33.60
4306;DHT22;2166;49.926;8.608;2022-07-29T07:13:49;35.10;33.50
4306;DHT22;2166;49.926;8.608;2022-07-29T07:16:18;35.30;34.00
4306;DHT22;2166;49.926;8.608;2022-07-29T07:18:46;35.80;33.60
4306;DHT22;2166;49.926;8.608;2022-07-29T07:21:16;36.20;32.50
4306;DHT22;2166;49.926;8.608;2022-07-29T07:23:45;35.60;33.00
4306;DHT22;2166;49.926;8.608;2022-07-29T07:26:14;35.30;33.70
4306;DHT22;2166;49.926;8.608;2022-07-29T07:28:42;35.00;34.20
4306;DHT22;2166;49.926;8.608;2022-07-29T07:31:11;34.90;34.00
4306;DHT22;2166;49.926;8.608;2022-07-29T07:33:39;34.80;34.40
4306;DHT22;2166;49.926;8.608;2022-07-29T07:36:07;34.90;34.00
4306;DHT22;2166;49.926;8.608;2022-07-29T07:38:37;34.70;34.10
4306;DHT22;2166;49.926;8.608;2022-07-29T07:41:05;34.70;34.30
4306;DHT22;2166;49.926;8.608;2022-07-29T07:43:33;35.50;34.10
4306;DHT22;2166;49.926;8.608;2022-07-29T07:46:02;36.40;33.00
4306;DHT22;2166;49.926;8.608;2022-07-29T07:48:30;36.50;32.80
4306;DHT22;2166;49.926;8.608;2022-07-29T07:50:58;36.40;32.70
4306;DHT22;2166;49.926;8.608;2022-07-29T07:53:26;37.00;32.60
4306;DHT22;2166;49.926;8.608;2022-07-29T07:55:58;37.40;32.00
4306;DHT22;2166;49.926;8.608;2022-07-29T07:58:36;37.00;32.50
4306;DHT22;2166;49.926;8.608;2022-07-29T08:01:05;37.90;31.60
4306;DHT22;2166;49.926;8.608;2022-07-29T08:03:33;38.90;31.00
4306;DHT22;2166;49.926;8.608;2022-07-29T08:06:02;39.20;30.60
4306;DHT22;2166;49.926;8.608;2022-07-29T08:08:30;39.70;30.20
4306;DHT22;2166;49.926;8.608;2022-07-29T08:11:00;40.50;29.60
4306;DHT22;2166;49.926;8.608;2022-07-29T08:13:37;40.00;30.30
4306;DHT22;2166;49.926;8.608;2022-07-29T08:16:06;39.50;30.80
4306;DHT22;2166;49.926;8.608;2022-07-29T08:18:43;40.40;30.60
4306;DHT22;2166;49.926;8.608;2022-07-29T08:21:12;40.90;30.30
4306;DHT22;2166;49.926;8.608;2022-07-29T08:23:42;40.90;30.10
4306;DHT22;2166;49.926;8.608;2022-07-29T08:26:26;40.70;30.30
4306;DHT22;2166;49.926;8.608;2022-07-29T08:28:54;40.20;30.90
4306;DHT22;2166;49.926;8.608;2022-07-29T08:31:22;40.40;31.00
4306;DHT22;2166;49.926;8.608;2022-07-29T08:33:50;41.30;30.30
4306;DHT22;2166;49.926;8.608;2022-07-29T08:36:18;42.50;29.50
4306;DHT22;2166;49.926;8.608;2022-07-29T08:38:48;43.60;28.80
4306;DHT22;2166;49.926;8.608;2022-07-29T08:41:17;44.50;28.10
4306;DHT22;2166;49.926;8.608;2022-07-29T08:43:47;44.70;28.70
4306;DHT22;2166;49.926;8.608;2022-07-29T08:46:16;45.40;28.30
4306;DHT22;2166;49.926;8.608;2022-07-29T08:48:45;45.30;28.30
4306;DHT22;2166;49.926;8.608;2022-07-29T08:51:15;45.40;28.10
4306;DHT22;2166;49.926;8.608;2022-07-29T08:53:45;45.70;27.70
4306;DHT22;2166;49.926;8.608;2022-07-29T08:56:17;44.70;28.50
4306;DHT22;2166;49.926;8.608;2022-07-29T08:58:47;44.30;28.80
4306;DHT22;2166;49.926;8.608;2022-07-29T09:01:22;45.10;28.30
4306;DHT22;2166;49.926;8.608;2022-07-29T09:04:04;46.30;27.40
4306;DHT22;2166;49.926;8.608;2022-07-29T09:06:37;46.60;27.40
4306;DHT22;2166;49.926;8.608;2022-07-29T09:09:08;45.40;28.10
4306;DHT22;2166;49.926;8.608;2022-07-29T09:11:36;44.20;29.50
4306;DHT22;2166;49.926;8.608;2022-07-29T09:14:06;44.70;29.30
4306;DHT22;2166;49.926;8.608;2022-07-29T09:16:49;45.00;28.60
4306;DHT22;2166;49.926;8.608;2022-07-29T09:19:25;44.10;29.30
4306;DHT22;2166;49.926;8.608;2022-07-29T09:21:54;43.50;29.80
4306;DHT22;2166;49.926;8.608;2022-07-29T09:24:42;42.70;30.30
4306;DHT22;2166;49.926;8.608;2022-07-29T09:27:19;42.00;31.00
4306;DHT22;2166;49.926;8.608;2022-07-29T09:29:57;43.10;30.20
4306;DHT22;2166;49.926;8.608;2022-07-29T09:32:26;44.10;29.60
4306;DHT22;2166;49.926;8.608;2022-07-29T09:35:16;43.30;30.00
4306;DHT22;2166;49.926;8.608;2022-07-29T09:37:45;42.90;30.70
4306;DHT22;2166;49.926;8.608;2022-07-29T09:40:15;43.90;30.00
4306;DHT22;2166;49.926;8.608;2022-07-29T09:42:44;44.60;29.30
4306;DHT22;2166;49.926;8.608;2022-07-29T09:45:26;45.50;28.90
4306;DHT22;2166;49.926;8.608;2022-07-29T09:47:55;46.70;28.10
4306;DHT22;2166;49.926;8.608;2022-07-29T09:50:35;46.60;28.00
4306;DHT22;2166;49.926;8.608;2022-07-29T09:53:03;47.10;27.70
4306;DHT22;2166;49.926;8.608;2022-07-29T09:55:32;47.30;27.70
4306;DHT22;2166;49.926;8.608;2022-07-29T09:58:18;47.60;27.30
4306;DHT22;2166;49.926;8.608;2022-07-29T10:00:49;47.80;27.10
4306;DHT22;2166;49.926;8.608;2022-07-29T10:03:19;48.10;26.80
4306;DHT22;2166;49.926;8.608;2022-07-29T10:06:04;48.00;26.60
4306;DHT22;2166;49.926;8.608;2022-07-29T10:08:33;47.30;27.60
4306;DHT22;2166;49.926;8.608;2022-07-29T10:11:12;47.00;27.90
4306;DHT22;2166;49.926;8.608;2022-07-29T10:13:41;47.60;27.20
4306;DHT22;2166;49.926;8.608;2022-07-29T10:16:12;48.80;26.20
4306;DHT22;2166;49.926;8.608;2022-07-29T10:18:42;49.40;25.80
4306;DHT22;2166;49.926;8.608;2022-07-29T10:21:11;48.80;26.10
4306;DHT22;2166;49.926;8.608;2022-07-29T10:23:59;49.10;26.40
4306;DHT22;2166;49.926;8.608;2022-07-29T10:26:28;49.90;25.60
4306;DHT22;2166;49.926;8.608;2022-07-29T10:28:57;49.00;26.00
4306;DHT22;2166;49.926;8.608;2022-07-29T10:31:33;48.90;26.20
4306;DHT22;2166;49.926;8.608;2022-07-29T10:34:07;49.10;26.20
4306;DHT22;2166;49.926;8.608;2022-07-29T10:36:54;49.60;26.00
4306;DHT22;2166;49.926;8.608;2022-07-29T10:39:35;48.70;26.40
4306;DHT22;2166;49.926;8.608;2022-07-29T10:42:17;48.10;27.00
4306;DHT22;2166;49.926;8.608;2022-07-29T10:44:59;48.60;26.70
4306;DHT22;2166;49.926;8.608;2022-07-29T10:47:29;49.00;26.10
4306;DHT22;2166;49.926;8.608;2022-07-29T10:50:02;48.90;26.20
4306;DHT22;2166;49.926;8.608;2022-07-29T10:52:53;48.50;26.60
4306;DHT22;2166;49.926;8.608;2022-07-29T10:55:41;48.80;26.60
4306;DHT22;2166;49.926;8.608;2022-07-29T10:58:14;49.00;26.10
4306;DHT22;2166;49.926;8.608;2022-07-29T11:00:44;49.70;25.90
4306;DHT22;2166;49.926;8.608;2022-07-29T11:03:45;50.20;25.60
4306;DHT22;2166;49.926;8.608;2022-07-29T11:06:16;49.70;25.60
4306;DHT22;2166;49.926;8.608;2022-07-29T11:09:15;49.30;25.90
4306;DHT22;2166;49.926;8.608;2022-07-29T11:11:51;49.20;26.00
4306;DHT22;2166;49.926;8.608;2022-07-29T11:14:58;48.90;26.20
4306;DHT22;2166;49.926;8.608;2022-07-29T11:18:07;49.30;26.20
4306;DHT22;2166;49.926;8.608;2022-07-29T11:20:44;49.40;26.10
4306;DHT22;2166;49.926;8.608;2022-07-29T11:23:21;50.20;25.50
4306;DHT22;2166;49.926;8.608;2022-07-29T11:26:24;50.40;25.50
4306;DHT22;2166;49.926;8.608;2022-07-29T11:28:59;51.20;25.10
4306;DHT22;2166;49.926;8.608;2022-07-29T11:31:39;51.30;24.80
4306;DHT22;2166;49.926;8.608;2022-07-29T11:34:22;51.80;24.80
4306;DHT22;2166;49.926;8.608;2022-07-29T11:37:21;51.20;24.70
4306;DHT22;2166;49.926;8.608;2022-07-29T11:40:15;51.00;24.60
4306;DHT22;2166;49.926;8.608;2022-07-29T11:42:46;50.20;25.10
4306;DHT22;2166;49.926;8.608;2022-07-29T11:45:45;49.50;25.40
4306;DHT22;2166;49.926;8.608;2022-07-29T11:48:18;47.90;26.60
4306;DHT22;2166;49.926;8.608;2022-07-29T11:50:57;47.30;27.20
4306;DHT22;2166;49.926;8.608;2022-07-29T11:53:26;46.40;27.70
4306;DHT22;2166;49.926;8.608;2022-07-29T11:55:59;46.10;28.00
4306;DHT22;2166;49.926;8.608;2022-07-29T11:58:28;45.50;28.00
4306;DHT22;2166;49.926;8.608;2022-07-29T12:00:57;44.40;29.00
4306;DHT22;2166;49.926;8.608;2022-07-29T12:03:32;44.70;29.00
4306;DHT22;2166;49.926;8.608;2022-07-29T12:06:03;45.80;28.40
4306;DHT22;2166;49.926;8.608;2022-07-29T12:08:41;47.00;27.40
4306;DHT22;2166;49.926;8.608;2022-07-29T12:11:16;48.20;26.40
4306;DHT22;2166;49.926;8.608;2022-07-29T12:13:47;49.30;25.80
4306;DHT22;2166;49.926;8.608;2022-07-29T12:16:15;50.00;24.90
4306;DHT22;2166;49.926;8.608;2022-07-29T12:18:58;50.30;24.80
4306;DHT22;2166;49.926;8.608;2022-07-29T12:21:28;50.80;24.70
4306;DHT22;2166;49.926;8.608;2022-07-29T12:23:57;51.20;24.60
4306;DHT22;2166;49.926;8.608;2022-07-29T12:26:35;51.40;24.20
4306;DHT22;2166;49.926;8.608;2022-07-29T12:29:06;51.70;24.20
4306;DHT22;2166;49.926;8.608;2022-07-29T12:31:42;51.40;24.40
4306;DHT22;2166;49.926;8.608;2022-07-29T12:34:13;51.20;24.40
4306;DHT22;2166;49.926;8.608;2022-07-29T12:36:43;50.40;24.80
4306;DHT22;2166;49.926;8.608;2022-07-29T12:39:11;49.40;25.10
4306;DHT22;2166;49.926;8.608;2022-07-29T12:41:40;48.00;25.80
4306;DHT22;2166;49.926;8.608;2022-07-29T12:44:08;46.40;26.80
4306;DHT22;2166;49.926;8.608;2022-07-29T12:46:37;45.20;27.60
4306;DHT22;2166;49.926;8.608;2022-07-29T12:49:05;45.00;27.80
4306;DHT22;2166;49.926;8.608;2022-07-29T12:51:38;45.30;28.10
4306;DHT22;2166;49.926;8.608;2022-07-29T12:54:08;45.80;27.40
4306;DHT22;2166;49.926;8.608;2022-07-29T12:56:38;45.30;27.80
4306;DHT22;2166;49.926;8.608;2022-07-29T12:59:14;42.80;29.40
4306;DHT22;2166;49.926;8.608;2022-07-29T13:01:43;41.50;31.00
4306;DHT22;2166;49.926;8.608;2022-07-29T13:04:24;41.10;31.60
4306;DHT22;2166;49.926;8.608;2022-07-29T13:07:00;41.10;31.30
4306;DHT22;2166;49.926;8.608;2022-07-29T13:09:38;40.20;32.30
4306;DHT22;2166;49.926;8.608;2022-07-29T13:12:08;39.30;34.30
4306;DHT22;2166;49.926;8.608;2022-07-29T13:14:38;39.20;33.80
4306;DHT22;2166;49.926;8.608;2022-07-29T13:17:08;40.40;32.70
4306;DHT22;2166;49.926;8.608;2022-07-29T13:19:38;41.70;31.20
4306;DHT22;2166;49.926;8.608;2022-07-29T13:22:09;42.20;30.80
4306;DHT22;2166;49.926;8.608;2022-07-29T13:24:48;42.60;30.20
4306;DHT22;2166;49.926;8.608;2022-07-29T13:27:17;42.90;30.10
4306;DHT22;2166;49.926;8.608;2022-07-29T13:29:46;42.80;29.90
4306;DHT22;2166;49.926;8.608;2022-07-29T13:32:15;42.60;30.00
4306;DHT22;2166;49.926;8.608;2022-07-29T13:34:43;42.20;30.50
4306;DHT22;2166;49.926;8.608;2022-07-29T13:37:13;41.70;31.20
4306;DHT22;2166;49.926;8.608;2022-07-29T13:39:41;41.20;31.40
4306;DHT22;2166;49.926;8.608;2022-07-29T13:42:18;41.20;31.60
4306;DHT22;2166;49.926;8.608;2022-07-29T13:44:47;42.00;31.00
4306;DHT22;2166;49.926;8.608;2022-07-29T13:47:17;42.60;30.40
4306;DHT22;2166;49.926;8.608;2022-07-29T13:49:45;42.40;30.20
4306;DHT22;2166;49.926;8.608;2022-07-29T13:52:15;41.80;30.70
4306;DHT22;2166;49.926;8.608;2022-07-29T13:54:44;41.50;31.50
4306;DHT22;2166;49.926;8.608;2022-07-29T13:57:12;41.40;31.80
4306;DHT22;2166;49.926;8.608;2022-07-29T13:59:41;41.60;31.40
4306;DHT22;2166;49.926;8.608;2022-07-29T14:02:10;41.90;31.20
4306;DHT22;2166;49.926;8.608;2022-07-29T14:04:42;41.50;31.30
4306;DHT22;2166;49.926;8.608;2022-07-29T14:07:11;40.70;31.90
4306;DHT22;2166;49.926;8.608;2022-07-29T14:09:43;40.30;31.90
4306;DHT22;2166;49.926;8.608;2022-07-29T14:12:11;39.60;32.40
4306;DHT22;2166;49.926;8.608;2022-07-29T14:14:40;38.80;33.30
4306;DHT22;2166;49.926;8.608;2022-07-29T14:17:09;38.50;33.50
4306;DHT22;2166;49.926;8.608;2022-07-29T14:19:37;38.10;33.10
4306;DHT22;2166;49.926;8.608;2022-07-29T14:22:07;37.10;34.20
4306;DHT22;2166;49.926;8.608;2022-07-29T14:24:37;36.60;34.80
4306;DHT22;2166;49.926;8.608;2022-07-29T14:27:07;35.80;36.30
4306;DHT22;2166;49.926;8.608;2022-07-29T14:29:36;35.10;37.20
4306;DHT22;2166;49.926;8.608;2022-07-29T14:32:05;34.50;38.20
4306;DHT22;2166;49.926;8.608;2022-07-29T14:34:34;34.30;38.60
4306;DHT22;2166;49.926;8.608;2022-07-29T14:37:04;33.90;39.10
4306;DHT22;2166;49.926;8.608;2022-07-29T14:39:34;33.60;39.80
4306;DHT22;2166;49.926;8.608;2022-07-29T14:42:10;33.80;39.70
4306;DHT22;2166;49.926;8.608;2022-07-29T14:44:39;33.90;39.70
4306;DHT22;2166;49.926;8.608;2022-07-29T14:47:08;33.90;39.60
4306;DHT22;2166;49.926;8.608;2022-07-29T14:49:37;33.70;39.80
4306;DHT22;2166;49.926;8.608;2022-07-29T14:52:05;33.80;40.10
4306;DHT22;2166;49.926;8.608;2022-07-29T14:54:33;34.00;40.00
4306;DHT22;2166;49.926;8.608;2022-07-29T14:57:01;34.20;39.60
4306;DHT22;2166;49.926;8.608;2022-07-29T14:59:31;34.30;39.30
4306;DHT22;2166;49.926;8.608;2022-07-29T15:01:59;34.20;39.70
4306;DHT22;2166;49.926;8.608;2022-07-29T15:04:28;34.10;40.60
4306;DHT22;2166;49.926;8.608;2022-07-29T15:06:57;34.10;40.70
4306;DHT22;2166;49.926;8.608;2022-07-29T15:09:25;34.00;41.30
4306;DHT22;2166;49.926;8.608;2022-07-29T15:11:54;33.90;41.90
4306;DHT22;2166;49.926;8.608;2022-07-29T15:14:22;33.90;41.20
4306;DHT22;2166;49.926;8.608;2022-07-29T15:16:52;33.80;41.30
4306;DHT22;2166;49.926;8.608;2022-07-29T15:19:20;33.80;41.00
4306;DHT22;2166;49.926;8.608;2022-07-29T15:21:48;33.70;40.90
4306;DHT22;2166;49.926;8.608;2022-07-29T15:24:17;33.70;40.60
4306;DHT22;2166;49.926;8.608;2022-07-29T15:26:46;33.70;40.40
4306;DHT22;2166;49.926;8.608;2022-07-29T15:29:15;33.90;40.10
4306;DHT22;2166;49.926;8.608;2022-07-29T15:31:43;34.00;40.10
4306;DHT22;2166;49.926;8.608;2022-07-29T15:34:12;34.10;39.70
4306;DHT22;2166;49.926;8.608;2022-07-29T15:36:41;34.80;39.30
4306;DHT22;2166;49.926;8.608;2022-07-29T15:39:19;35.20;38.40
4306;DHT22;2166;49.926;8.608;2022-07-29T15:41:47;35.20;38.30
4306;DHT22;2166;49.926;8.608;2022-07-29T15:44:16;35.10;38.60
4306;DHT22;2166;49.926;8.608;2022-07-29T15:46:44;35.30;38.80
4306;DHT22;2166;49.926;8.608;2022-07-29T15:49:33;35.50;38.30
4306;DHT22;2166;49.926;8.608;2022-07-29T15:52:15;35.50;38.20
4306;DHT22;2166;49.926;8.608;2022-07-29T15:54:46;35.50;38.20
4306;DHT22;2166;49.926;8.608;2022-07-29T15:57:14;35.60;38.10
4306;DHT22;2166;49.926;8.608;2022-07-29T15:59:42;35.50;38.00
4306;DHT22;2166;49.926;8.608;2022-07-29T16:02:11;35.60;38.30
4306;DHT22;2166;49.926;8.608;2022-07-29T16:04:40;35.60;38.20
4306;DHT22;2166;49.926;8.608;2022-07-29T16:07:09;35.60;38.00
4306;DHT22;2166;49.926;8.608;2022-07-29T16:09:37;35.40;38.00
4306;DHT22;2166;49.926;8.608;2022-07-29T16:12:05;35.10;38.50
4306;DHT22;2166;49.926;8.608;2022-07-29T16:14:41;34.70;39.00
4306;DHT22;2166;49.926;8.608;2022-07-29T16:17:10;34.30;38.50
4306;DHT22;2166;49.926;8.608;2022-07-29T16:19:42;33.80;39.40
4306;DHT22;2166;49.926;8.608;2022-07-29T16:22:11;33.20;40.90
4306;DHT22;2166;49.926;8.608;2022-07-29T16:24:39;32.60;41.80
4306;DHT22;2166;49.926;8.608;2022-07-29T16:27:08;32.20;42.30
4306;DHT22;2166;49.926;8.608;2022-07-29T16:29:36;32.10;42.80
4306;DHT22;2166;49.926;8.608;2022-07-29T16:32:04;32.10;43.10